Latest Weather Observations for Kingaroy

IDQ60801

Issued at 1:02 pm EST Sunday 31 July 2016 (issued every 30 minutes, with the page automatically refreshed every 10 minutes)

About weather observations | Map of weather stations | Latest weather observations for QLD | Other Formats
Station Details ID: 040922 Name: KINGAROY AIRPORT Lat: -26.57 Lon: 151.84 Height: 433.67 m
Data from the previous 72 hours. | See also: Recent months at Kingaroy
Date/Time
EST
Temp
°C
App
Temp
°C
Dew
Point
°C
Rel
Hum
%
Delta-T
°C
Wind Press
QNH
hPa
Press
MSL
hPa
Rain since
9am
mm
Dir  Spd
km/h
Gust
km/h
Spd
kts
Gust
kts
31/01:00pm 21.3 17.2 2.1 28 9.1 NNW 13 22 7 12 1018.9 1018.8 0.0
31/12:30pm 20.4 16.6 4.0 34 8.0 WNW 13 24 7 13 1019.3 1019.2 0.0
31/12:00pm 20.0 15.9 4.5 36 7.6 NNW 15 20 8 11 1019.9 1019.8 0.0
31/11:30am 19.5 16.6 6.3 42 6.7 N 11 19 6 10 1020.4 1020.4 0.0
31/11:00am 18.7 15.0 6.2 44 6.3 N 15 22 8 12 1020.9 1020.9 0.0
31/10:30am 18.3 15.8 8.0 51 5.4 NNW 11 20 6 11 1021.8 1021.7 0.0
31/10:00am 16.9 15.0 9.1 60 4.1 NW 9 17 5 9 1022.3 1022.3 0.0
31/09:30am 15.4 14.4 8.9 65 3.4 NNW 4 7 2 4 1022.4 1022.4 0.0
31/09:00am 12.1 11.5 7.6 74 2.2 CALM 0 0 0 0 1022.3 1022.3 0.0
31/08:30am 8.6 7.7 5.9 83 1.3 CALM 0 0 0 0 1022.0 1021.9 0.0
31/08:00am 5.7 4.5 4.5 92 0.5 CALM 0 0 0 0 1021.8 1021.7 0.0
31/07:30am 2.5 0.8 1.8 95 0.3 CALM 0 0 0 0 1021.4 1021.3 0.0
31/07:00am 0.8 -1.2 -0.2 93 0.4 CALM 0 0 0 0 1020.9 1020.9 0.0
31/06:30am 0.5 -1.6 -0.5 93 0.4 CALM 0 0 0 0 1020.8 1020.8 0.0
31/06:00am 0.9 -1.1 0.2 95 0.3 CALM 0 0 0 0 1020.5 1020.5 0.0
31/05:30am 1.0 -1.0 0.1 94 0.3 CALM 0 0 0 0 1020.4 1020.4 0.0
31/05:00am 1.1 -0.9 0.2 94 0.3 CALM 0 0 0 0 1020.1 1020.0 0.0
31/04:30am 1.2 -0.8 0.2 93 0.4 CALM 0 0 0 0 1019.8 1019.7 0.0
31/04:00am 1.1 -1.3 -0.1 92 0.4 S 2 7 1 4 1019.8 1019.7 0.0
31/03:30am 1.5 -1.6 0.2 91 0.5 S 6 7 3 4 1019.6 1019.5 0.0
31/03:00am 1.5 -0.5 0.2 91 0.5 CALM 0 0 0 0 1019.8 1019.7 0.0
31/02:30am 1.9 -0.1 0.1 88 0.7 CALM 0 0 0 0 1020.0 1019.9 0.0
31/02:00am 2.4 0.5 0.8 89 0.6 CALM 0 0 0 0 1020.5 1020.5 0.0
31/01:30am 2.6 0.7 0.7 87 0.7 CALM 0 0 0 0 1020.8 1020.8 0.0
31/01:00am 2.9 1.1 1.3 89 0.6 CALM 0 2 0 1 1021.3 1021.2 0.0
31/12:30am 2.9 -1.0 1.3 89 0.6 S 11 13 6 7 1021.4 1021.3 0.0
31/12:00am 3.3 1.5 1.3 87 0.8 CALM 0 0 0 0 1021.5 1021.4 0.0
 
Date/Time
EST
Temp
°C
App
Temp
°C
Dew
Point
°C
Rel
Hum
%
Delta-T
°C
Wind Press
QNH
hPa
Press
MSL
hPa
Rain since
9am
mm
Dir  Spd
km/h
Gust
km/h
Spd
kts
Gust
kts
30/11:30pm 3.4 1.5 0.8 83 1.0 CALM 0 0 0 0 1021.8 1021.7 0.0
30/11:00pm 3.9 2.1 0.9 81 1.2 CALM 0 0 0 0 1021.8 1021.7 0.0
30/10:30pm 4.6 2.8 1.3 79 1.3 CALM 0 0 0 0 1021.7 1021.6 0.0
30/10:00pm 4.9 3.1 1.2 77 1.5 CALM 0 0 0 0 1021.7 1021.6 0.0
30/09:30pm 5.2 3.4 1.1 75 1.7 CALM 0 0 0 0 1021.5 1021.4 0.0
30/09:00pm 5.8 2.9 1.7 75 1.7 SE 6 7 3 4 1021.4 1021.3 0.0
30/08:30pm 7.4 4.4 2.1 69 2.2 SSE 7 9 4 5 1021.0 1021.0 0.0
30/08:00pm 6.9 4.8 1.4 68 2.3 SSE 2 7 1 4 1020.9 1020.9 0.0
30/07:30pm 7.7 5.6 1.5 65 2.6 E 2 6 1 3 1020.7 1020.7 0.0
30/07:00pm 8.9 7.3 2.3 63 2.8 CALM 0 0 0 0 1020.4 1020.4 0.0
30/06:30pm 11.4 9.7 1.9 52 4.2 CALM 0 0 0 0 1020.0 1019.9 0.0
30/06:00pm 14.1 12.3 1.1 41 5.7 CALM 0 0 0 0 1019.6 1019.5 0.0
30/05:30pm 16.4 13.2 0.5 34 7.0 SSW 7 9 4 5 1019.2 1019.1 0.0
30/05:00pm 19.1 15.9 0.7 29 8.4 NW 7 9 4 5 1018.9 1018.8 0.0
30/04:30pm 20.5 17.3 0.9 27 9.1 W 7 9 4 5 1018.6 1018.6 0.0
30/04:00pm 20.8 17.0 -0.5 24 9.6 W 9 11 5 6 1018.5 1018.5 0.0
30/03:30pm 21.0 17.7 0.2 25 9.5 WNW 7 15 4 8 1018.5 1018.5 0.0
30/03:00pm 21.0 17.6 -0.3 24 9.6 S 7 13 4 7 1018.5 1018.5 0.0
30/02:30pm 20.7 16.9 -1.1 23 9.7 WNW 9 19 5 10 1018.8 1018.7 0.0
30/02:00pm 20.4 15.8 -1.4 23 9.6 WNW 13 20 7 11 1018.9 1018.8 0.0
30/01:30pm 20.4 16.2 -0.8 24 9.5 WNW 11 15 6 8 1019.1 1019.0 0.0
30/01:00pm 20.2 14.8 -1.6 23 9.5 WNW 17 22 9 12 1019.5 1019.4 0.0
30/12:30pm 19.9 15.6 -1.8 23 9.5 W 11 20 6 11 1020.0 1019.9 0.0
30/12:00pm 19.0 14.6 -2.6 23 9.2 WNW 11 26 6 14 1020.6 1020.6 0.0
30/11:30am 17.8 15.0 2.2 35 7.2 SW 6 9 3 5 1021.0 1021.0 0.0
30/11:00am 17.9 15.3 3.4 38 6.9 W 6 9 3 5 1021.6 1021.5 0.0
30/10:30am 16.4 13.6 3.1 41 6.2 NW 7 13 4 7 1022.0 1021.9 0.0
30/10:00am 15.3 12.7 4.1 47 5.3 WNW 7 11 4 6 1022.3 1022.3 0.0
30/09:30am 13.9 12.0 5.0 55 4.2 W 4 7 2 4 1022.6 1022.6 0.0
30/09:00am 11.7 10.8 6.2 69 2.6 CALM 0 0 0 0 1022.6 1022.6 -
30/08:30am 8.0 6.6 5.6 85 1.1 WSW 2 6 1 3 1022.5 1022.5 -
30/08:00am 5.3 4.2 5.0 98 0.1 CALM 0 0 0 0 1022.2 1022.2 -
30/07:30am 1.8 0.0 1.4 97 0.2 CALM 0 0 0 0 1022.0 1021.9 -
30/07:00am 0.6 -1.4 -0.1 95 0.3 CALM 0 4 0 2 1021.9 1021.8 -
30/06:30am 0.7 -2.4 0.0 95 0.3 S 6 7 3 4 1021.7 1021.6 -
30/06:00am 1.0 -1.0 0.0 93 0.4 CALM 0 0 0 0 1021.4 1021.3 -
30/05:30am 1.3 -0.6 0.6 95 0.3 CALM 0 0 0 0 1021.1 1021.1 -
30/05:00am 1.3 -0.7 0.1 92 0.4 CALM 0 0 0 0 1020.9 1020.9 -
30/04:30am 2.2 0.4 1.2 93 0.4 CALM 0 0 0 0 1020.8 1020.8 -
30/04:00am 2.7 -0.4 1.5 92 0.5 S 7 7 4 4 1020.7 1020.7 -
30/03:30am 2.4 0.2 0.8 89 0.6 ESE 2 7 1 4 1020.7 1020.7 -
30/03:00am 2.8 0.3 1.3 90 0.6 NW 4 6 2 3 1021.0 1021.0 -
30/02:30am 4.2 1.5 2.6 89 0.7 NNW 6 7 3 4 1021.1 1021.1 -
30/02:00am 4.4 2.6 1.4 81 1.2 CALM 0 0 0 0 1021.3 1021.2 -
30/01:30am 5.4 3.8 2.6 82 1.2 CALM 0 0 0 0 1021.6 1021.5 -
30/01:00am 5.7 3.0 2.4 79 1.4 SSE 6 7 3 4 1021.8 1021.7 -
30/12:30am 7.8 4.5 2.5 69 2.3 ESE 9 13 5 7 1022.2 1022.2 -
30/12:00am 11.0 6.8 4.0 62 3.2 SE 15 20 8 11 1022.4 1022.4 -
 
Date/Time
EST
Temp
°C
App
Temp
°C
Dew
Point
°C
Rel
Hum
%
Delta-T
°C
Wind Press
QNH
hPa
Press
MSL
hPa
Rain since
9am
mm
Dir  Spd
km/h
Gust
km/h
Spd
kts
Gust
kts
29/11:30pm 7.4 3.8 2.9 73 1.9 ESE 11 15 6 8 1022.5 1022.5 -
29/11:00pm 7.6 4.2 4.2 79 1.5 E 11 13 6 7 1022.5 1022.5 -
29/10:30pm 5.0 2.2 3.0 87 0.8 E 7 13 4 7 1022.5 1022.5 -
29/10:00pm 5.5 4.1 3.5 87 0.9 CALM 0 0 0 0 1022.4 1022.4 -
29/09:30pm 6.0 4.5 3.2 82 1.2 CALM 0 0 0 0 1022.3 1022.3 -
29/09:00pm 6.6 5.2 3.8 82 1.2 CALM 0 0 0 0 1022.2 1022.2 -
29/08:30pm 7.3 6.0 3.9 79 1.5 CALM 0 6 0 3 1022.1 1022.0 -
29/08:00pm 8.3 6.7 4.3 76 1.8 S 2 9 1 5 1021.9 1021.8 -
29/06:00pm 13.1 11.9 4.8 57 3.9 CALM 0 0 0 0 1020.5 1020.5 -
29/04:00pm 21.0 18.7 4.6 34 8.2 WNW 6 11 3 6 1020.2 1020.2 -
29/03:30pm 20.6 17.7 4.6 35 8.0 N 9 17 5 9 1020.1 1020.0 -
29/03:00pm 20.9 17.6 4.5 34 8.1 WNW 11 17 6 9 1020.3 1020.3 -
29/02:30pm 21.0 19.3 5.8 37 7.7 WSW 4 11 2 6 1020.6 1020.6 -
29/02:00pm 20.4 17.6 5.2 37 7.6 NW 9 17 5 9 1020.9 1020.9 -
29/01:30pm 20.2 16.8 5.8 39 7.3 NW 13 19 7 10 1021.3 1021.2 -
29/01:00pm 20.2 18.2 7.2 43 6.7 E 7 11 4 6 1021.5 1021.4 -
29/12:30pm 19.6 16.7 6.4 42 6.7 NNW 11 19 6 10 1022.1 1022.0 -
29/12:00pm 18.8 16.3 6.6 45 6.2 NW 9 19 5 10 1022.6 1022.6 -
29/11:30am 19.3 16.9 7.1 45 6.3 W 9 20 5 11 1023.2 1023.2 -
29/11:00am 18.6 16.5 6.8 46 6.0 NW 7 13 4 7 1023.8 1023.7 -
29/10:30am 17.7 15.3 5.3 44 6.1 NNW 7 9 4 5 1024.1 1024.0 0.0
29/10:00am 16.4 15.1 6.0 50 5.1 SW 2 7 1 4 1024.5 1024.5 0.0
29/09:30am 14.7 13.1 6.3 57 4.1 S 4 6 2 3 1024.8 1024.8 0.0
29/09:00am 12.4 11.7 7.1 70 2.6 CALM 0 0 0 0 1024.7 1024.7 0.0
29/08:30am 8.7 7.7 5.6 81 1.4 CALM 0 0 0 0 1024.7 1024.7 0.0
29/08:00am 4.6 3.3 4.2 97 0.2 CALM 0 0 0 0 1024.6 1024.6 0.0
29/07:30am 1.4 -0.4 1.0 97 0.2 CALM 0 0 0 0 1024.4 1024.4 0.0
29/07:00am -0.2 -2.3 -0.9 95 0.2 CALM 0 0 0 0 1024.3 1024.3 0.0
29/06:30am -0.6 -3.9 -1.6 93 0.3 SSE 6 7 3 4 1024.1 1024.0 0.0
29/06:00am -0.1 -2.2 -0.8 95 0.2 CALM 0 0 0 0 1024.0 1023.9 0.0
29/05:30am 0.3 -1.8 -0.5 94 0.3 CALM 0 0 0 0 1023.9 1023.8 0.0
29/05:00am -0.1 -2.2 -0.8 95 0.2 CALM 0 0 0 0 1023.5 1023.5 0.0
29/04:30am 0.3 -1.8 -0.5 94 0.3 CALM 0 0 0 0 1023.2 1023.2 0.0
29/04:00am 0.4 -1.7 -0.6 93 0.4 CALM 0 0 0 0 1023.2 1023.2 0.0
29/03:30am 0.6 -1.4 -0.4 93 0.4 CALM 0 0 0 0 1023.3 1023.3 0.0
29/03:00am 1.1 -2.2 0.1 93 0.4 SSE 7 9 4 5 1023.4 1023.4 0.0
29/02:30am 0.9 -2.5 -0.4 91 0.5 S 7 7 4 4 1023.3 1023.3 0.0
29/02:00am 1.5 -0.4 0.3 92 0.5 CALM 0 0 0 0 1023.3 1023.3 0.0
29/01:30am 1.4 -0.6 -0.1 90 0.6 CALM 0 0 0 0 1023.5 1023.5 0.0
29/01:00am 2.0 0.1 0.8 92 0.5 CALM 0 0 0 0 1023.7 1023.6 0.0
29/12:30am 1.9 0.0 0.4 90 0.6 CALM 0 0 0 0 1023.7 1023.6 0.0
29/12:00am 2.5 0.3 0.9 89 0.6 SSE 2 6 1 3 1023.8 1023.7 0.0
 
Date/Time
EST
Temp
°C
App
Temp
°C
Dew
Point
°C
Rel
Hum
%
Delta-T
°C
Wind Press
QNH
hPa
Press
MSL
hPa
Rain since
9am
mm
Dir  Spd
km/h
Gust
km/h
Spd
kts
Gust
kts
28/11:30pm 2.3 -0.4 0.2 86 0.8 SSW 4 7 2 4 1023.9 1023.8 0.0
28/11:00pm 3.1 1.3 1.2 87 0.7 CALM 0 0 0 0 1024.0 1023.9 0.0
28/10:30pm 3.4 1.5 0.8 83 1.0 CALM 0 0 0 0 1024.2 1024.2 0.0
28/10:00pm 4.2 2.4 1.2 81 1.2 CALM 0 0 0 0 1024.3 1024.3 0.0
28/09:30pm 4.6 2.8 1.3 79 1.3 CALM 0 0 0 0 1024.3 1024.3 0.0
28/09:00pm 5.3 3.2 1.8 78 1.4 SSE 2 6 1 3 1024.4 1024.4 0.0
28/08:30pm 6.4 3.4 1.9 73 1.9 S 7 9 4 5 1024.4 1024.4 0.0
28/08:00pm 6.5 4.8 2.0 73 1.9 CALM 0 0 0 0 1024.4 1024.4 0.0
28/07:30pm 7.2 5.5 1.7 68 2.3 CALM 0 6 0 3 1024.2 1024.2 0.0
28/07:00pm 8.2 6.6 2.2 66 2.5 CALM 0 4 0 2 1024.0 1023.9 0.0
28/06:30pm 9.5 6.7 2.1 60 3.2 SE 6 6 3 3 1023.5 1023.5 0.0
28/06:00pm 10.6 7.6 1.7 54 3.8 E 7 11 4 6 1023.2 1023.2 0.0
28/05:30pm 13.9 10.4 1.5 43 5.5 E 9 11 5 6 1022.9 1022.9 0.0
28/05:00pm 16.2 12.6 0.7 35 6.9 E 9 13 5 7 1022.6 1022.6 0.0
28/04:30pm 17.6 13.6 0.3 31 7.7 ESE 11 15 6 8 1022.4 1022.4 0.0
28/04:00pm 18.1 14.5 0.7 31 7.8 SSW 9 13 5 7 1022.2 1022.2 0.0
28/03:30pm 18.3 14.7 0.4 30 8.0 SE 9 15 5 8 1022.3 1022.3 0.0
28/03:00pm 18.3 14.4 0.9 31 7.9 SW 11 17 6 9 1022.3 1022.3 0.0
28/02:30pm 18.0 13.6 0.2 30 7.9 S 13 20 7 11 1022.2 1022.2 0.0
28/02:00pm 18.0 14.7 0.2 30 7.9 E 7 13 4 7 1022.3 1022.3 0.0
28/01:30pm 17.1 14.0 0.3 32 7.5 S 6 9 3 5 1022.7 1022.7 0.0

Other Formats:

Comma delimited format used in spreadsheet applications
http://www.bom.gov.au/fwo/IDQ60801/IDQ60801.94549.axf

JavaScript Object Notation format (JSON) in row-major order
http://www.bom.gov.au/fwo/IDQ60801/IDQ60801.94549.json